sensor_id;sensor_type;location;lat;lon;timestamp;pressure;altitude;pressure_sealevel;temperature;humidity
38718;BME280;24468;52.128;9.278;2023-04-01T00:00:19;98598.97;;;11.11;100.00
38718;BME280;24468;52.128;9.278;2023-04-01T00:02:45;98600.38;;;11.28;100.00
38718;BME280;24468;52.128;9.278;2023-04-01T00:05:11;98605.53;;;11.31;100.00
38718;BME280;24468;52.128;9.278;2023-04-01T00:07:38;98601.25;;;10.94;100.00
38718;BME280;24468;52.128;9.278;2023-04-01T00:10:06;98593.38;;;10.79;100.00
38718;BME280;24468;52.128;9.278;2023-04-01T00:12:33;98598.53;;;10.58;100.00
38718;BME280;24468;52.128;9.278;2023-04-01T00:14:58;98599.19;;;10.62;100.00
38718;BME280;24468;52.128;9.278;2023-04-01T00:17:24;98590.88;;;10.65;100.00
38718;BME280;24468;52.128;9.278;2023-04-01T00:19:50;98611.72;;;10.74;100.00
38718;BME280;24468;52.128;9.278;2023-04-01T00:22:15;98603.06;;;10.58;100.00
38718;BME280;24468;52.128;9.278;2023-04-01T00:24:41;98606.81;;;10.44;100.00
38718;BME280;24468;52.128;9.278;2023-04-01T00:27:07;98602.41;;;10.43;100.00
38718;BME280;24468;52.128;9.278;2023-04-01T00:29:34;98600.78;;;10.64;100.00
38718;BME280;24468;52.128;9.278;2023-04-01T00:32:00;98603.91;;;10.82;100.00
38718;BME280;24468;52.128;9.278;2023-04-01T00:34:25;98606.34;;;10.74;100.00
38718;BME280;24468;52.128;9.278;2023-04-01T00:36:51;98600.88;;;10.87;100.00
38718;BME280;24468;52.128;9.278;2023-04-01T00:39:19;98603.44;;;10.88;100.00
38718;BME280;24468;52.128;9.278;2023-04-01T00:41:44;98606.78;;;10.92;100.00
38718;BME280;24468;52.128;9.278;2023-04-01T00:44:23;98604.31;;;10.89;100.00
38718;BME280;24468;52.128;9.278;2023-04-01T00:46:50;98601.13;;;10.84;100.00
38718;BME280;24468;52.128;9.278;2023-04-01T00:49:19;98592.56;;;11.01;100.00
38718;BME280;24468;52.128;9.278;2023-04-01T00:51:48;98596.13;;;11.02;100.00
38718;BME280;24468;52.128;9.278;2023-04-01T00:54:16;98602.44;;;11.13;100.00
38718;BME280;24468;52.128;9.278;2023-04-01T00:56:56;98598.50;;;11.18;100.00
38718;BME280;24468;52.128;9.278;2023-04-01T00:59:30;98603.66;;;11.21;100.00
38718;BME280;24468;52.128;9.278;2023-04-01T01:01:57;98597.03;;;11.13;100.00
38718;BME280;24468;52.128;9.278;2023-04-01T01:04:29;98600.19;;;11.19;100.00
38718;BME280;24468;52.128;9.278;2023-04-01T01:07:38;98597.41;;;11.20;100.00
38718;BME280;24468;52.128;9.278;2023-04-01T01:10:37;98597.91;;;11.25;100.00
38718;BME280;24468;52.128;9.278;2023-04-01T01:13:34;98593.97;;;11.41;100.00
38718;BME280;24468;52.128;9.278;2023-04-01T01:16:15;98591.75;;;11.23;100.00
38718;BME280;24468;52.128;9.278;2023-04-01T01:19:17;98591.63;;;11.13;100.00
38718;BME280;24468;52.128;9.278;2023-04-01T01:31:03;98592.88;;;11.32;100.00
38718;BME280;24468;52.128;9.278;2023-04-01T01:34:19;98589.66;;;11.16;100.00
38718;BME280;24468;52.128;9.278;2023-04-01T01:36:50;98591.41;;;11.28;100.00
38718;BME280;24468;52.128;9.278;2023-04-01T01:39:19;98594.63;;;11.33;100.00
38718;BME280;24468;52.128;9.278;2023-04-01T01:41:47;98586.97;;;11.27;100.00
38718;BME280;24468;52.128;9.278;2023-04-01T01:44:17;98590.06;;;11.33;100.00
38718;BME280;24468;52.128;9.278;2023-04-01T01:46:43;98583.31;;;11.39;100.00
38718;BME280;24468;52.128;9.278;2023-04-01T01:49:11;98580.00;;;11.35;100.00
38718;BME280;24468;52.128;9.278;2023-04-01T01:51:38;98588.47;;;11.31;100.00
38718;BME280;24468;52.128;9.278;2023-04-01T01:54:05;98582.81;;;11.45;100.00
38718;BME280;24468;52.128;9.278;2023-04-01T01:56:31;98589.59;;;11.51;100.00
38718;BME280;24468;52.128;9.278;2023-04-01T01:59:04;98585.28;;;11.48;100.00
38718;BME280;24468;52.128;9.278;2023-04-01T02:01:37;98590.94;;;11.45;100.00
38718;BME280;24468;52.128;9.278;2023-04-01T02:04:04;98580.00;;;11.35;100.00
38718;BME280;24468;52.128;9.278;2023-04-01T02:06:34;98586.50;;;11.22;100.00
38718;BME280;24468;52.128;9.278;2023-04-01T02:09:03;98583.91;;;11.20;100.00
38718;BME280;24468;52.128;9.278;2023-04-01T02:11:38;98588.22;;;11.23;100.00
38718;BME280;24468;52.128;9.278;2023-04-01T02:14:15;98588.72;;;11.28;100.00
38718;BME280;24468;52.128;9.278;2023-04-01T02:17:04;98590.13;;;11.09;100.00
38718;BME280;24468;52.128;9.278;2023-04-01T02:19:39;98585.22;;;11.03;100.00
38718;BME280;24468;52.128;9.278;2023-04-01T02:22:11;98590.56;;;11.27;100.00
38718;BME280;24468;52.128;9.278;2023-04-01T02:24:40;98591.22;;;11.07;100.00
38718;BME280;24468;52.128;9.278;2023-04-01T02:27:06;98587.47;;;11.21;100.00
38718;BME280;24468;52.128;9.278;2023-04-01T02:29:32;98587.97;;;11.26;100.00
38718;BME280;24468;52.128;9.278;2023-04-01T02:31:58;98582.19;;;11.19;100.00
38718;BME280;24468;52.128;9.278;2023-04-01T02:34:25;98586.75;;;11.30;100.00
38718;BME280;24468;52.128;9.278;2023-04-01T02:36:51;98594.84;;;11.30;100.00
38718;BME280;24468;52.128;9.278;2023-04-01T02:39:17;98597.78;;;11.27;100.00
38718;BME280;24468;52.128;9.278;2023-04-01T02:41:45;98590.06;;;11.33;100.00
38718;BME280;24468;52.128;9.278;2023-04-01T02:44:13;98590.66;;;11.26;100.00
38718;BME280;24468;52.128;9.278;2023-04-01T02:46:39;98590.06;;;11.22;100.00
38718;BME280;24468;52.128;9.278;2023-04-01T02:49:05;98588.22;;;11.23;100.00
38718;BME280;24468;52.128;9.278;2023-04-01T02:51:32;98585.91;;;10.94;100.00
38718;BME280;24468;52.128;9.278;2023-04-01T02:53:58;98598.22;;;10.98;100.00
38718;BME280;24468;52.128;9.278;2023-04-01T02:56:24;98599.69;;;11.02;100.00
38718;BME280;24468;52.128;9.278;2023-04-01T02:58:49;98601.06;;;11.08;100.00
38718;BME280;24468;52.128;9.278;2023-04-01T03:01:15;98594.44;;;11.12;100.00
38718;BME280;24468;52.128;9.278;2023-04-01T03:03:41;98597.50;;;11.19;100.00
38718;BME280;24468;52.128;9.278;2023-04-01T03:06:10;98599.09;;;11.10;100.00
38718;BME280;24468;52.128;9.278;2023-04-01T03:08:36;98601.69;;;11.11;100.00
38718;BME280;24468;52.128;9.278;2023-04-01T03:11:01;98590.50;;;11.16;100.00
38718;BME280;24468;52.128;9.278;2023-04-01T03:13:27;98590.28;;;11.19;100.00
38718;BME280;24468;52.128;9.278;2023-04-01T03:15:52;98593.97;;;11.18;100.00
38718;BME280;24468;52.128;9.278;2023-04-01T03:18:18;98592.50;;;11.25;100.00
38718;BME280;24468;52.128;9.278;2023-04-01T03:20:44;98599.84;;;11.12;100.00
38718;BME280;24468;52.128;9.278;2023-04-01T03:23:10;98595.31;;;11.24;100.00
38718;BME280;24468;52.128;9.278;2023-04-01T03:25:36;98597.38;;;11.09;100.00
38718;BME280;24468;52.128;9.278;2023-04-01T03:28:01;98591.25;;;11.18;100.00
38718;BME280;24468;52.128;9.278;2023-04-01T03:30:27;98595.06;;;11.16;100.00
38718;BME280;24468;52.128;9.278;2023-04-01T03:32:55;98593.97;;;11.18;100.00
38718;BME280;24468;52.128;9.278;2023-04-01T03:35:20;98590.41;;;11.29;100.00
38718;BME280;24468;52.128;9.278;2023-04-01T03:37:46;98600.19;;;11.19;100.00
38718;BME280;24468;52.128;9.278;2023-04-01T03:40:12;98596.81;;;11.28;100.00
38718;BME280;24468;52.128;9.278;2023-04-01T03:42:37;98593.84;;;11.20;100.00
38718;BME280;24468;52.128;9.278;2023-04-01T03:45:04;98598.16;;;11.22;100.00
38718;BME280;24468;52.128;9.278;2023-04-01T03:47:30;98601.09;;;11.19;100.00
38718;BME280;24468;52.128;9.278;2023-04-01T03:49:56;98612.16;;;11.27;100.00
38718;BME280;24468;52.128;9.278;2023-04-01T03:52:21;98600.38;;;11.28;100.00
38718;BME280;24468;52.128;9.278;2023-04-01T03:54:47;98598.75;;;11.26;100.00
38718;BME280;24468;52.128;9.278;2023-04-01T03:57:13;98606.09;;;11.12;100.00
38718;BME280;24468;52.128;9.278;2023-04-01T03:59:38;98607.34;;;11.20;100.00
38718;BME280;24468;52.128;9.278;2023-04-01T04:02:04;98594.34;;;11.25;100.00
38718;BME280;24468;52.128;9.278;2023-04-01T04:04:30;98599.84;;;11.23;100.00
38718;BME280;24468;52.128;9.278;2023-04-01T04:06:56;98609.31;;;11.29;100.00
38718;BME280;24468;52.128;9.278;2023-04-01T04:09:22;98605.41;;;11.22;100.00
38718;BME280;24468;52.128;9.278;2023-04-01T04:11:48;98608.56;;;11.27;100.00
38718;BME280;24468;52.128;9.278;2023-04-01T04:14:14;98613.00;;;11.28;100.00
38718;BME280;24468;52.128;9.278;2023-04-01T04:16:40;98609.06;;;11.21;100.00
38718;BME280;24468;52.128;9.278;2023-04-01T04:19:05;98611.50;;;11.24;100.00
38718;BME280;24468;52.128;9.278;2023-04-01T04:21:31;98608.34;;;11.30;100.00
38718;BME280;24468;52.128;9.278;2023-04-01T04:23:59;98611.25;;;11.27;100.00
38718;BME280;24468;52.128;9.278;2023-04-01T04:26:26;98620.00;;;11.30;100.00
38718;BME280;24468;52.128;9.278;2023-04-01T04:28:53;98610.44;;;11.38;100.00
38718;BME280;24468;52.128;9.278;2023-04-01T04:31:22;98610.81;;;11.33;100.00
38718;BME280;24468;52.128;9.278;2023-04-01T04:33:48;98616.91;;;11.24;100.00
38718;BME280;24468;52.128;9.278;2023-04-01T04:36:13;98619.16;;;11.30;100.00
38718;BME280;24468;52.128;9.278;2023-04-01T04:38:39;98616.91;;;11.35;100.00
38718;BME280;24468;52.128;9.278;2023-04-01T04:41:12;98623.16;;;11.24;100.00
38718;BME280;24468;52.128;9.278;2023-04-01T04:43:39;98616.06;;;11.34;100.00
38718;BME280;24468;52.128;9.278;2023-04-01T04:46:07;98623.69;;;11.41;100.00
38718;BME280;24468;52.128;9.278;2023-04-01T04:48:33;98622.72;;;11.30;100.00
38718;BME280;24468;52.128;9.278;2023-04-01T04:50:59;98616.72;;;11.38;100.00
38718;BME280;24468;52.128;9.278;2023-04-01T04:53:24;98617.31;;;11.42;100.00
38718;BME280;24468;52.128;9.278;2023-04-01T04:55:51;98625.53;;;11.40;100.00
38718;BME280;24468;52.128;9.278;2023-04-01T04:58:17;98622.56;;;11.32;100.00
38718;BME280;24468;52.128;9.278;2023-04-01T05:00:43;98623.41;;;11.32;100.00
38718;BME280;24468;52.128;9.278;2023-04-01T05:03:09;98622.72;;;11.42;100.00
38718;BME280;24468;52.128;9.278;2023-04-01T05:05:35;98629.31;;;11.38;100.00
38718;BME280;24468;52.128;9.278;2023-04-01T05:08:01;98635.34;;;11.30;100.00
38718;BME280;24468;52.128;9.278;2023-04-01T05:10:27;98633.75;;;11.39;100.00
38718;BME280;24468;52.128;9.278;2023-04-01T05:12:52;98634.47;;;11.41;100.00
38718;BME280;24468;52.128;9.278;2023-04-01T05:15:18;98641.72;;;11.40;100.00
38718;BME280;24468;52.128;9.278;2023-04-01T05:17:43;98638.78;;;11.43;100.00
38718;BME280;24468;52.128;9.278;2023-04-01T05:20:12;98637.06;;;11.31;100.00
38718;BME280;24468;52.128;9.278;2023-04-01T05:22:38;98642.47;;;11.31;100.00
38718;BME280;24468;52.128;9.278;2023-04-01T05:25:04;98645.41;;;11.39;100.00
38718;BME280;24468;52.128;9.278;2023-04-01T05:27:29;98637.31;;;11.39;100.00
38718;BME280;24468;52.128;9.278;2023-04-01T05:29:55;98651.19;;;11.46;100.00
38718;BME280;24468;52.128;9.278;2023-04-01T05:32:21;98650.56;;;11.42;100.00
38718;BME280;24468;52.128;9.278;2023-04-01T05:34:51;98641.47;;;11.43;100.00
38718;BME280;24468;52.128;9.278;2023-04-01T05:37:16;98646.63;;;11.46;100.00
38718;BME280;24468;52.128;9.278;2023-04-01T05:39:42;98643.56;;;11.40;100.00
38718;BME280;24468;52.128;9.278;2023-04-01T05:42:08;98650.72;;;11.52;100.00
38718;BME280;24468;52.128;9.278;2023-04-01T05:44:34;98646.44;;;11.49;100.00
38718;BME280;24468;52.128;9.278;2023-04-01T05:47:01;98639.94;;;11.52;100.00
38718;BME280;24468;52.128;9.278;2023-04-01T05:49:26;98648.03;;;11.52;100.00
38718;BME280;24468;52.128;9.278;2023-04-01T05:51:52;98646.78;;;11.56;100.00
38718;BME280;24468;52.128;9.278;2023-04-01T05:54:19;98647.53;;;11.58;100.00
38718;BME280;24468;52.128;9.278;2023-04-01T05:56:45;98648.28;;;11.60;100.00
38718;BME280;24468;52.128;9.278;2023-04-01T05:59:11;98646.53;;;11.59;100.00
38718;BME280;24468;52.128;9.278;2023-04-01T06:01:37;98648.38;;;11.47;100.00
38718;BME280;24468;52.128;9.278;2023-04-01T06:04:03;98648.03;;;11.63;100.00
38718;BME280;24468;52.128;9.278;2023-04-01T06:06:31;98651.09;;;11.58;100.00
38718;BME280;24468;52.128;9.278;2023-04-01T06:09:06;98661.78;;;11.60;100.00
38718;BME280;24468;52.128;9.278;2023-04-01T06:18:38;98653.81;;;11.70;100.00
38718;BME280;24468;52.128;9.278;2023-04-01T06:21:49;98665.84;;;11.77;100.00
38718;BME280;24468;52.128;9.278;2023-04-01T06:27:45;98663.19;;;11.99;100.00
38718;BME280;24468;52.128;9.278;2023-04-01T06:36:43;98667.97;;;12.30;100.00
38718;BME280;24468;52.128;9.278;2023-04-01T06:48:13;98673.69;;;12.59;100.00
38718;BME280;24468;52.128;9.278;2023-04-01T06:54:04;98672.41;;;12.74;100.00
38718;BME280;24468;52.128;9.278;2023-04-01T06:56:32;98681.75;;;12.81;100.00
38718;BME280;24468;52.128;9.278;2023-04-01T06:59:13;98669.34;;;13.11;100.00
38718;BME280;24468;52.128;9.278;2023-04-01T07:01:53;98680.66;;;13.05;100.00
38718;BME280;24468;52.128;9.278;2023-04-01T07:04:31;98679.50;;;13.19;100.00
38718;BME280;24468;52.128;9.278;2023-04-01T07:07:33;98679.38;;;13.20;100.00
38718;BME280;24468;52.128;9.278;2023-04-01T07:10:05;98682.34;;;13.17;100.00
38718;BME280;24468;52.128;9.278;2023-04-01T07:12:48;98683.81;;;12.89;100.00
38718;BME280;24468;52.128;9.278;2023-04-01T07:15:28;98685.53;;;12.90;100.00
38718;BME280;24468;52.128;9.278;2023-04-01T07:18:03;98686.53;;;12.78;100.00
38718;BME280;24468;52.128;9.278;2023-04-01T07:20:32;98694.75;;;12.87;100.00
38718;BME280;24468;52.128;9.278;2023-04-01T07:23:10;98695.25;;;12.93;100.00
38718;BME280;24468;52.128;9.278;2023-04-01T07:25:42;98696.50;;;12.77;100.00
38718;BME280;24468;52.128;9.278;2023-04-01T07:28:15;98698.03;;;12.59;100.00
38718;BME280;24468;52.128;9.278;2023-04-01T07:34:30;98707.25;;;12.45;100.00
38718;BME280;24468;52.128;9.278;2023-04-01T07:37:14;98713.06;;;12.40;100.00
38718;BME280;24468;52.128;9.278;2023-04-01T07:40:37;98713.06;;;12.40;100.00
38718;BME280;24468;52.128;9.278;2023-04-01T07:54:34;98733.09;;;12.49;100.00
38718;BME280;24468;52.128;9.278;2023-04-01T07:57:30;98733.22;;;12.36;100.00
38718;BME280;24468;52.128;9.278;2023-04-01T08:02:47;98736.88;;;12.58;100.00
38718;BME280;24468;52.128;9.278;2023-04-01T08:10:52;98739.44;;;12.82;100.00
38718;BME280;24468;52.128;9.278;2023-04-01T08:13:51;98734.09;;;12.91;100.00
38718;BME280;24468;52.128;9.278;2023-04-01T08:17:15;98748.00;;;12.98;100.00
38718;BME280;24468;52.128;9.278;2023-04-01T08:20:07;98751.94;;;12.94;100.00
38718;BME280;24468;52.128;9.278;2023-04-01T08:25:32;98751.78;;;13.07;100.00
38718;BME280;24468;52.128;9.278;2023-04-01T08:30:53;98762.44;;;12.76;100.00
38718;BME280;24468;52.128;9.278;2023-04-01T08:38:54;98758.47;;;13.03;100.00
38718;BME280;24468;52.128;9.278;2023-04-01T08:41:41;98768.16;;;13.05;100.00
38718;BME280;24468;52.128;9.278;2023-04-01T08:44:45;98768.41;;;13.02;100.00
38718;BME280;24468;52.128;9.278;2023-04-01T08:50:41;98777.75;;;13.09;100.00
38718;BME280;24468;52.128;9.278;2023-04-01T08:56:39;98776.00;;;13.20;100.00
38718;BME280;24468;52.128;9.278;2023-04-01T09:25:45;98795.97;;;13.51;100.00
38718;BME280;24468;52.128;9.278;2023-04-01T09:31:31;98806.91;;;13.82;100.00
38718;BME280;24468;52.128;9.278;2023-04-01T09:36:47;98814.03;;;13.62;100.00
38718;BME280;24468;52.128;9.278;2023-04-01T09:44:36;98816.03;;;13.27;100.00
38718;BME280;24468;52.128;9.278;2023-04-01T09:47:51;98815.84;;;13.72;100.00
38718;BME280;24468;52.128;9.278;2023-04-01T09:50:48;98828.41;;;13.41;100.00
38718;BME280;24468;52.128;9.278;2023-04-01T09:53:48;98822.69;;;13.55;100.00
38718;BME280;24468;52.128;9.278;2023-04-01T09:59:45;98824.72;;;13.74;100.00
38718;BME280;24468;52.128;9.278;2023-04-01T10:03:20;98829.81;;;13.89;100.00
38718;BME280;24468;52.128;9.278;2023-04-01T10:19:55;98844.03;;;13.38;100.00
38718;BME280;24468;52.128;9.278;2023-04-01T10:29:06;98842.72;;;13.09;100.00
38718;BME280;24468;52.128;9.278;2023-04-01T10:38:52;98850.13;;;13.62;100.00
38718;BME280;24468;52.128;9.278;2023-04-01T10:48:43;98859.19;;;13.40;100.00
38718;BME280;24468;52.128;9.278;2023-04-01T10:58:02;98857.91;;;13.55;100.00
38718;BME280;24468;52.128;9.278;2023-04-01T11:07:30;98859.84;;;13.97;100.00
38718;BME280;24468;52.128;9.278;2023-04-01T11:20:22;98861.53;;;13.98;100.00
38718;BME280;24468;52.128;9.278;2023-04-01T11:24:18;98862.00;;;14.03;100.00
38718;BME280;24468;52.128;9.278;2023-04-01T11:26:51;98857.47;;;14.24;100.00
38718;BME280;24468;52.128;9.278;2023-04-01T11:34:53;98873.22;;;14.10;100.00
38718;BME280;24468;52.128;9.278;2023-04-01T11:37:54;98873.56;;;13.84;100.00
38718;BME280;24468;52.128;9.278;2023-04-01T11:43:24;98882.38;;;13.97;100.00
38718;BME280;24468;52.128;9.278;2023-04-01T11:46:11;98883.25;;;14.19;100.00
38718;BME280;24468;52.128;9.278;2023-04-01T11:54:52;98889.88;;;14.05;100.00
38718;BME280;24468;52.128;9.278;2023-04-01T12:01:15;98895.69;;;14.21;100.00
38718;BME280;24468;52.128;9.278;2023-04-01T12:04:06;98899.13;;;14.02;100.00
38718;BME280;24468;52.128;9.278;2023-04-01T12:12:40;98900.47;;;14.29;100.00
38718;BME280;24468;52.128;9.278;2023-04-01T12:15:30;98910.22;;;14.53;100.00
38718;BME280;24468;52.128;9.278;2023-04-01T12:21:38;98912.34;;;14.70;100.00
38718;BME280;24468;52.128;9.278;2023-04-01T12:32:59;98923.22;;;15.10;100.00
38718;BME280;24468;52.128;9.278;2023-04-01T12:36:00;98924.78;;;15.34;100.00
38718;BME280;24468;52.128;9.278;2023-04-01T12:41:59;98926.63;;;14.72;100.00
38718;BME280;24468;52.128;9.278;2023-04-01T12:45:03;98925.09;;;15.10;100.00
38718;BME280;24468;52.128;9.278;2023-04-01T12:50:50;98928.84;;;15.19;100.00
38718;BME280;24468;52.128;9.278;2023-04-01T12:56:24;98949.16;;;15.65;100.00
38718;BME280;24468;52.128;9.278;2023-04-01T13:15:43;98959.41;;;15.42;100.00
38718;BME280;24468;52.128;9.278;2023-04-01T13:19:17;98968.81;;;15.28;100.00
38718;BME280;24468;52.128;9.278;2023-04-01T13:22:20;98975.53;;;15.33;100.00
38718;BME280;24468;52.128;9.278;2023-04-01T13:25:36;98973.69;;;15.44;100.00
38718;BME280;24468;52.128;9.278;2023-04-01T13:28:42;98974.19;;;15.59;100.00
38718;BME280;24468;52.128;9.278;2023-04-01T13:30:55;98977.47;;;15.22;100.00
38718;BME280;24468;52.128;9.278;2023-04-01T13:39:47;98985.97;;;15.38;100.00
38718;BME280;24468;52.128;9.278;2023-04-01T13:42:35;98985.69;;;15.01;100.00
38718;BME280;24468;52.128;9.278;2023-04-01T14:03:57;99011.50;;;14.95;100.00
38718;BME280;24468;52.128;9.278;2023-04-01T14:12:42;99022.16;;;14.66;100.00
38718;BME280;24468;52.128;9.278;2023-04-01T14:21:59;99033.81;;;14.57;100.00
38718;BME280;24468;52.128;9.278;2023-04-01T14:27:46;99047.78;;;14.41;100.00
38718;BME280;24468;52.128;9.278;2023-04-01T14:30:38;99054.13;;;14.62;100.00
38718;BME280;24468;52.128;9.278;2023-04-01T14:33:33;99053.94;;;14.43;100.00
38718;BME280;24468;52.128;9.278;2023-04-01T14:48:48;99063.22;;;14.73;100.00
38718;BME280;24468;52.128;9.278;2023-04-01T14:51:35;99066.00;;;14.82;100.00
38718;BME280;24468;52.128;9.278;2023-04-01T14:54:08;99065.47;;;15.09;100.00
38718;BME280;24468;52.128;9.278;2023-04-01T14:56:49;99070.00;;;14.67;100.00
38718;BME280;24468;52.128;9.278;2023-04-01T15:05:02;99088.19;;;14.87;100.00
38718;BME280;24468;52.128;9.278;2023-04-01T15:07:59;99086.13;;;14.36;100.00
38718;BME280;24468;52.128;9.278;2023-04-01T15:13:25;99094.75;;;14.53;100.00
38718;BME280;24468;52.128;9.278;2023-04-01T15:16:15;99105.53;;;14.20;100.00
38718;BME280;24468;52.128;9.278;2023-04-01T15:22:06;99117.75;;;14.26;100.00
38718;BME280;24468;52.128;9.278;2023-04-01T15:25:22;99125.78;;;14.05;100.00
38718;BME280;24468;52.128;9.278;2023-04-01T15:31:13;99127.25;;;13.87;100.00
38718;BME280;24468;52.128;9.278;2023-04-01T15:34:24;99133.78;;;13.50;100.00
38718;BME280;24468;52.128;9.278;2023-04-01T15:37:06;99145.75;;;13.70;100.00
38718;BME280;24468;52.128;9.278;2023-04-01T15:40:14;99143.47;;;12.71;100.00
38718;BME280;24468;52.128;9.278;2023-04-01T15:45:29;99164.50;;;12.67;100.00
38718;BME280;24468;52.128;9.278;2023-04-01T15:57:32;99179.25;;;12.27;100.00
38718;BME280;24468;52.128;9.278;2023-04-01T16:00:21;99191.63;;;11.92;100.00
38718;BME280;24468;52.128;9.278;2023-04-01T16:06:26;99194.63;;;12.13;100.00
38718;BME280;24468;52.128;9.278;2023-04-01T16:12:16;99216.47;;;11.72;100.00
38718;BME280;24468;52.128;9.278;2023-04-01T16:18:32;99236.03;;;10.83;100.00
38718;BME280;24468;52.128;9.278;2023-04-01T16:21:00;99231.41;;;10.58;100.00
38718;BME280;24468;52.128;9.278;2023-04-01T16:24:10;99239.84;;;10.93;100.00
38718;BME280;24468;52.128;9.278;2023-04-01T16:32:37;99250.91;;;10.34;100.00
38718;BME280;24468;52.128;9.278;2023-04-01T16:35:41;99268.88;;;10.19;100.00
38718;BME280;24468;52.128;9.278;2023-04-01T16:38:25;99265.22;;;10.06;100.00
38718;BME280;24468;52.128;9.278;2023-04-01T16:46:41;99284.84;;;10.08;100.00
38718;BME280;24468;52.128;9.278;2023-04-01T16:54:35;99308.44;;;9.90;100.00
38718;BME280;24468;52.128;9.278;2023-04-01T16:57:30;99323.44;;;9.50;100.00
38718;BME280;24468;52.128;9.278;2023-04-01T17:03:31;99326.19;;;9.48;100.00
38718;BME280;24468;52.128;9.278;2023-04-01T17:11:19;99341.69;;;9.45;100.00
38718;BME280;24468;52.128;9.278;2023-04-01T17:14:54;99356.38;;;9.69;100.00
38718;BME280;24468;52.128;9.278;2023-04-01T17:18:01;99360.59;;;9.73;100.00
38718;BME280;24468;52.128;9.278;2023-04-01T17:23:52;99361.59;;;9.26;100.00
38718;BME280;24468;52.128;9.278;2023-04-01T17:26:36;99387.47;;;9.13;100.00
38718;BME280;24468;52.128;9.278;2023-04-01T17:29:28;99383.53;;;9.19;100.00
38718;BME280;24468;52.128;9.278;2023-04-01T17:37:53;99415.47;;;9.56;100.00
38718;BME280;24468;52.128;9.278;2023-04-01T17:43:48;99416.13;;;9.14;100.00
38718;BME280;24468;52.128;9.278;2023-04-01T17:49:23;99426.44;;;8.90;100.00
38718;BME280;24468;52.128;9.278;2023-04-01T17:58:30;99461.13;;;8.79;100.00
38718;BME280;24468;52.128;9.278;2023-04-01T18:01:15;99473.53;;;8.48;100.00
38718;BME280;24468;52.128;9.278;2023-04-01T18:03:56;99469.16;;;8.45;100.00
38718;BME280;24468;52.128;9.278;2023-04-01T18:07:08;99471.91;;;8.61;100.00
38718;BME280;24468;52.128;9.278;2023-04-01T18:18:50;99515.25;;;8.88;100.00
38718;BME280;24468;52.128;9.278;2023-04-01T18:21:46;99529.78;;;8.68;100.00
38718;BME280;24468;52.128;9.278;2023-04-01T18:27:23;99536.44;;;8.61;100.00
38718;BME280;24468;52.128;9.278;2023-04-01T18:29:53;99542.78;;;8.94;100.00
38718;BME280;24468;52.128;9.278;2023-04-01T18:32:35;99560.28;;;8.85;100.00
38718;BME280;24468;52.128;9.278;2023-04-01T18:35:28;99560.22;;;8.52;100.00
38718;BME280;24468;52.128;9.278;2023-04-01T18:38:25;99567.97;;;8.40;100.00
38718;BME280;24468;52.128;9.278;2023-04-01T18:41:19;99580.03;;;8.32;100.00
38718;BME280;24468;52.128;9.278;2023-04-01T18:44:27;99578.56;;;8.43;100.00
38718;BME280;24468;52.128;9.278;2023-04-01T18:47:14;99590.81;;;7.95;100.00
38718;BME280;24468;52.128;9.278;2023-04-01T18:50:13;99604.75;;;7.85;100.00
38718;BME280;24468;52.128;9.278;2023-04-01T18:52:44;99603.00;;;7.84;100.00
38718;BME280;24468;52.128;9.278;2023-04-01T18:55:35;99622.38;;;8.09;100.00
38718;BME280;24468;52.128;9.278;2023-04-01T18:58:36;99622.22;;;7.93;100.00
38718;BME280;24468;52.128;9.278;2023-04-01T19:01:37;99632.97;;;7.74;100.00
38718;BME280;24468;52.128;9.278;2023-04-01T19:04:37;99642.09;;;7.89;100.00
38718;BME280;24468;52.128;9.278;2023-04-01T19:10:24;99656.47;;;7.69;100.00
38718;BME280;24468;52.128;9.278;2023-04-01T19:13:31;99668.31;;;7.84;100.00
38718;BME280;24468;52.128;9.278;2023-04-01T19:16:21;99676.94;;;8.29;100.00
38718;BME280;24468;52.128;9.278;2023-04-01T19:19:19;99688.97;;;7.44;100.00
38718;BME280;24468;52.128;9.278;2023-04-01T19:21:58;99693.53;;;7.82;100.00
38718;BME280;24468;52.128;9.278;2023-04-01T19:24:46;99698.34;;;7.34;100.00
38718;BME280;24468;52.128;9.278;2023-04-01T19:34:22;99725.81;;;7.60;100.00
38718;BME280;24468;52.128;9.278;2023-04-01T19:37:20;99722.38;;;7.17;100.00
38718;BME280;24468;52.128;9.278;2023-04-01T19:40:02;99730.16;;;7.43;100.00
38718;BME280;24468;52.128;9.278;2023-04-01T19:46:14;99744.34;;;7.45;100.00
38718;BME280;24468;52.128;9.278;2023-04-01T19:48:56;99751.69;;;7.81;100.00
38718;BME280;24468;52.128;9.278;2023-04-01T19:51:52;99758.53;;;7.28;100.00
38718;BME280;24468;52.128;9.278;2023-04-01T19:57:38;99765.75;;;7.26;100.00
38718;BME280;24468;52.128;9.278;2023-04-01T20:00:36;99780.88;;;7.49;100.00
38718;BME280;24468;52.128;9.278;2023-04-01T20:03:21;99778.59;;;7.61;100.00
38718;BME280;24468;52.128;9.278;2023-04-01T20:06:27;99788.72;;;7.33;100.00
38718;BME280;24468;52.128;9.278;2023-04-01T20:12:56;99806.28;;;7.20;100.00
38718;BME280;24468;52.128;9.278;2023-04-01T20:15:33;99802.72;;;7.40;100.00
38718;BME280;24468;52.128;9.278;2023-04-01T20:18:26;99812.97;;;6.88;100.00
38718;BME280;24468;52.128;9.278;2023-04-01T20:24:01;99820.97;;;6.89;100.00
38718;BME280;24468;52.128;9.278;2023-04-01T20:26:37;99834.97;;;6.74;100.00
38718;BME280;24468;52.128;9.278;2023-04-01T20:29:36;99840.47;;;6.93;100.00
38718;BME280;24468;52.128;9.278;2023-04-01T20:32:32;99848.19;;;6.79;100.00
38718;BME280;24468;52.128;9.278;2023-04-01T20:37:42;99852.72;;;6.55;100.00
38718;BME280;24468;52.128;9.278;2023-04-01T20:40:34;99864.09;;;6.61;100.00
38718;BME280;24468;52.128;9.278;2023-04-01T20:46:17;99869.50;;;7.05;100.00
38718;BME280;24468;52.128;9.278;2023-04-01T20:51:59;99885.69;;;6.80;100.00